sensor_id;sensor_type;location;lat;lon;timestamp;pressure;altitude;pressure_sealevel;temperature;humidity
77897;BME280;67092;64.282;21.056;2023-04-08T00:00:34;102733.34;;;21.16;22.35
77897;BME280;67092;64.282;21.056;2023-04-08T00:03:00;102730.99;;;21.07;22.33
77897;BME280;67092;64.282;21.056;2023-04-08T00:05:25;102729.96;;;21.06;22.24
77897;BME280;67092;64.282;21.056;2023-04-08T00:07:51;102729.05;;;20.59;22.77
77897;BME280;67092;64.282;21.056;2023-04-08T00:10:17;102730.78;;;21.11;22.48
77897;BME280;67092;64.282;21.056;2023-04-08T00:12:42;102729.22;;;20.74;22.45
77897;BME280;67092;64.282;21.056;2023-04-08T00:15:09;102732.69;;;20.88;22.58
77897;BME280;67092;64.282;21.056;2023-04-08T00:17:34;102731.73;;;21.37;22.26
77897;BME280;67092;64.282;21.056;2023-04-08T00:19:59;102730.68;;;20.94;22.27
77897;BME280;67092;64.282;21.056;2023-04-08T00:22:25;102728.52;;;21.01;22.62
77897;BME280;67092;64.282;21.056;2023-04-08T00:24:50;102725.09;;;20.61;22.77
77897;BME280;67092;64.282;21.056;2023-04-08T00:27:16;102721.56;;;20.85;22.55
77897;BME280;67092;64.282;21.056;2023-04-08T00:29:42;102723.68;;;21.05;22.67
77897;BME280;67092;64.282;21.056;2023-04-08T00:32:07;102723.60;;;21.01;22.38
77897;BME280;67092;64.282;21.056;2023-04-08T00:34:33;102724.68;;;20.83;22.80
77897;BME280;67092;64.282;21.056;2023-04-08T00:36:58;102727.57;;;20.79;22.56
77897;BME280;67092;64.282;21.056;2023-04-08T00:39:24;102724.75;;;20.86;22.57
77897;BME280;67092;64.282;21.056;2023-04-08T00:41:50;102720.49;;;20.93;22.58
77897;BME280;67092;64.282;21.056;2023-04-08T00:44:15;102719.08;;;21.35;22.34
77897;BME280;67092;64.282;21.056;2023-04-08T00:46:41;102714.46;;;20.67;22.70
77897;BME280;67092;64.282;21.056;2023-04-08T00:49:07;102711.60;;;20.84;22.52
77897;BME280;67092;64.282;21.056;2023-04-08T00:51:33;102713.19;;;20.65;22.70
77897;BME280;67092;64.282;21.056;2023-04-08T00:53:58;102709.89;;;21.49;22.30
77897;BME280;67092;64.282;21.056;2023-04-08T00:56:23;102716.17;;;21.20;22.39
77897;BME280;67092;64.282;21.056;2023-04-08T00:58:49;102718.43;;;20.92;22.64
77897;BME280;67092;64.282;21.056;2023-04-08T01:01:21;102717.86;;;20.99;22.57
77897;BME280;67092;64.282;21.056;2023-04-08T01:03:54;102713.66;;;21.36;22.07
77897;BME280;67092;64.282;21.056;2023-04-08T01:06:12;102717.24;;;20.29;22.31
77897;BME280;67092;64.282;21.056;2023-04-08T01:08:32;102719.26;;;21.14;22.18
77897;BME280;67092;64.282;21.056;2023-04-08T01:11:00;102715.83;;;20.89;22.37
77897;BME280;67092;64.282;21.056;2023-04-08T01:13:24;102715.59;;;20.69;22.68
77897;BME280;67092;64.282;21.056;2023-04-08T01:15:49;102709.47;;;21.05;22.53
77897;BME280;67092;64.282;21.056;2023-04-08T01:18:15;102713.78;;;20.55;22.69
77897;BME280;67092;64.282;21.056;2023-04-08T01:20:40;102712.47;;;21.15;22.29
77897;BME280;67092;64.282;21.056;2023-04-08T01:23:14;102710.44;;;20.74;22.49
77897;BME280;67092;64.282;21.056;2023-04-08T01:25:32;102705.11;;;20.52;22.66
77897;BME280;67092;64.282;21.056;2023-04-08T01:27:57;102705.36;;;20.56;22.84
77897;BME280;67092;64.282;21.056;2023-04-08T01:30:24;102705.31;;;20.64;22.73
77897;BME280;67092;64.282;21.056;2023-04-08T01:32:48;102705.00;;;20.64;22.74
77897;BME280;67092;64.282;21.056;2023-04-08T01:35:14;102700.84;;;20.49;22.67
77897;BME280;67092;64.282;21.056;2023-04-08T01:37:39;102696.45;;;20.43;22.68
77897;BME280;67092;64.282;21.056;2023-04-08T01:40:08;102694.42;;;21.17;22.28
77897;BME280;67092;64.282;21.056;2023-04-08T01:42:31;102692.04;;;20.55;22.57
77897;BME280;67092;64.282;21.056;2023-04-08T01:44:57;102691.81;;;20.86;22.50
77897;BME280;67092;64.282;21.056;2023-04-08T01:47:22;102685.31;;;20.92;22.51
77897;BME280;67092;64.282;21.056;2023-04-08T01:49:47;102685.17;;;21.00;22.41
77897;BME280;67092;64.282;21.056;2023-04-08T01:52:14;102685.39;;;20.44;22.95
77897;BME280;67092;64.282;21.056;2023-04-08T01:54:38;102687.19;;;20.40;22.88
77897;BME280;67092;64.282;21.056;2023-04-08T01:57:06;102689.21;;;20.72;22.84
77897;BME280;67092;64.282;21.056;2023-04-08T01:59:34;102691.52;;;21.02;22.63
77897;BME280;67092;64.282;21.056;2023-04-08T02:01:56;102690.85;;;20.52;22.89
77897;BME280;67092;64.282;21.056;2023-04-08T02:04:21;102693.10;;;20.89;22.81
77897;BME280;67092;64.282;21.056;2023-04-08T02:06:47;102694.49;;;21.18;22.49
77897;BME280;67092;64.282;21.056;2023-04-08T02:09:12;102692.26;;;20.79;23.00
77897;BME280;67092;64.282;21.056;2023-04-08T02:11:38;102693.16;;;20.91;22.84
77897;BME280;67092;64.282;21.056;2023-04-08T02:14:03;102690.33;;;21.00;22.72
77897;BME280;67092;64.282;21.056;2023-04-08T02:16:33;102687.79;;;20.65;22.82
77897;BME280;67092;64.282;21.056;2023-04-08T02:18:58;102689.10;;;21.08;22.61
77897;BME280;67092;64.282;21.056;2023-04-08T02:21:23;102686.34;;;20.94;22.69
77897;BME280;67092;64.282;21.056;2023-04-08T02:23:48;102683.48;;;21.15;22.53
77897;BME280;67092;64.282;21.056;2023-04-08T02:26:14;102690.03;;;20.89;22.50
77897;BME280;67092;64.282;21.056;2023-04-08T02:28:38;102693.74;;;21.14;22.48
77897;BME280;67092;64.282;21.056;2023-04-08T02:31:04;102692.18;;;21.10;22.32
77897;BME280;67092;64.282;21.056;2023-04-08T02:33:28;102692.66;;;20.71;22.66
77897;BME280;67092;64.282;21.056;2023-04-08T02:35:55;102687.60;;;20.99;22.51
77897;BME280;67092;64.282;21.056;2023-04-08T02:38:19;102690.14;;;21.16;22.48
77897;BME280;67092;64.282;21.056;2023-04-08T02:40:45;102686.92;;;20.34;22.76
77897;BME280;67092;64.282;21.056;2023-04-08T02:43:11;102685.79;;;20.90;22.67
77897;BME280;67092;64.282;21.056;2023-04-08T02:45:40;102679.24;;;20.87;22.49
77897;BME280;67092;64.282;21.056;2023-04-08T02:48:02;102679.42;;;20.76;22.55
77897;BME280;67092;64.282;21.056;2023-04-08T02:50:27;102673.79;;;21.50;22.15
77897;BME280;67092;64.282;21.056;2023-04-08T02:52:53;102669.74;;;21.35;22.28
77897;BME280;67092;64.282;21.056;2023-04-08T02:55:19;102675.50;;;20.75;22.52
77897;BME280;67092;64.282;21.056;2023-04-08T02:57:46;102673.45;;;21.39;22.19
77897;BME280;67092;64.282;21.056;2023-04-08T03:00:11;102678.55;;;20.81;22.49
77897;BME280;67092;64.282;21.056;2023-04-08T03:02:36;102678.26;;;20.73;22.54
77897;BME280;67092;64.282;21.056;2023-04-08T03:05:01;102678.52;;;20.66;22.63
77897;BME280;67092;64.282;21.056;2023-04-08T03:07:27;102677.33;;;20.64;22.52
77897;BME280;67092;64.282;21.056;2023-04-08T03:09:53;102677.47;;;20.49;22.88
77897;BME280;67092;64.282;21.056;2023-04-08T03:12:18;102675.15;;;20.53;22.95
77897;BME280;67092;64.282;21.056;2023-04-08T03:14:44;102673.77;;;20.37;23.01
77897;BME280;67092;64.282;21.056;2023-04-08T03:17:09;102672.45;;;20.87;22.69
77897;BME280;67092;64.282;21.056;2023-04-08T03:19:35;102672.41;;;20.96;22.47
77897;BME280;67092;64.282;21.056;2023-04-08T03:22:01;102675.53;;;20.35;22.78
77897;BME280;67092;64.282;21.056;2023-04-08T03:24:26;102675.65;;;20.88;22.50
77897;BME280;67092;64.282;21.056;2023-04-08T03:26:52;102670.21;;;20.37;22.72
77897;BME280;67092;64.282;21.056;2023-04-08T03:29:17;102670.44;;;20.86;22.47
77897;BME280;67092;64.282;21.056;2023-04-08T03:31:43;102672.20;;;20.81;22.50
77897;BME280;67092;64.282;21.056;2023-04-08T03:34:09;102673.86;;;20.30;22.75
77897;BME280;67092;64.282;21.056;2023-04-08T03:36:34;102672.66;;;20.49;22.79
77897;BME280;67092;64.282;21.056;2023-04-08T03:39:00;102674.17;;;20.78;22.35
77897;BME280;67092;64.282;21.056;2023-04-08T03:41:26;102674.85;;;20.64;22.82
77897;BME280;67092;64.282;21.056;2023-04-08T03:43:51;102671.73;;;20.55;22.68
77897;BME280;67092;64.282;21.056;2023-04-08T03:46:17;102671.95;;;20.47;22.53
77897;BME280;67092;64.282;21.056;2023-04-08T03:48:42;102672.84;;;20.62;22.36
77897;BME280;67092;64.282;21.056;2023-04-08T03:51:08;102673.90;;;20.68;22.56
77897;BME280;67092;64.282;21.056;2023-04-08T03:53:34;102672.69;;;20.39;22.81
77897;BME280;67092;64.282;21.056;2023-04-08T03:55:59;102671.60;;;20.39;22.80
77897;BME280;67092;64.282;21.056;2023-04-08T03:58:25;102672.13;;;20.23;22.74
77897;BME280;67092;64.282;21.056;2023-04-08T04:00:51;102671.58;;;20.59;22.64
77897;BME280;67092;64.282;21.056;2023-04-08T04:03:16;102672.33;;;20.48;22.69
77897;BME280;67092;64.282;21.056;2023-04-08T04:05:42;102671.36;;;20.80;22.49
77897;BME280;67092;64.282;21.056;2023-04-08T04:08:07;102670.74;;;20.47;22.69
77897;BME280;67092;64.282;21.056;2023-04-08T04:10:33;102669.19;;;20.39;22.70
77897;BME280;67092;64.282;21.056;2023-04-08T04:12:59;102671.01;;;20.40;22.66
77897;BME280;67092;64.282;21.056;2023-04-08T04:15:24;102669.39;;;20.61;22.47
77897;BME280;67092;64.282;21.056;2023-04-08T04:17:50;102674.10;;;20.94;22.50
77897;BME280;67092;64.282;21.056;2023-04-08T04:20:16;102675.24;;;21.15;22.35
77897;BME280;67092;64.282;21.056;2023-04-08T04:22:41;102676.77;;;20.49;22.60
77897;BME280;67092;64.282;21.056;2023-04-08T04:25:08;102675.72;;;20.49;22.59
77897;BME280;67092;64.282;21.056;2023-04-08T04:27:32;102677.85;;;20.63;22.47
77897;BME280;67092;64.282;21.056;2023-04-08T04:30:00;102680.43;;;20.73;22.43
77897;BME280;67092;64.282;21.056;2023-04-08T04:32:24;102678.91;;;20.79;22.38
77897;BME280;67092;64.282;21.056;2023-04-08T04:34:49;102679.27;;;20.92;22.27
77897;BME280;67092;64.282;21.056;2023-04-08T04:37:15;102678.55;;;20.69;22.44
77897;BME280;67092;64.282;21.056;2023-04-08T04:39:41;102679.65;;;20.58;22.30
77897;BME280;67092;64.282;21.056;2023-04-08T04:42:06;102686.85;;;20.68;22.24
77897;BME280;67092;64.282;21.056;2023-04-08T04:44:32;102686.65;;;20.54;22.35
77897;BME280;67092;64.282;21.056;2023-04-08T04:46:58;102690.47;;;20.67;22.15
77897;BME280;67092;64.282;21.056;2023-04-08T04:49:23;102690.36;;;20.63;22.25
77897;BME280;67092;64.282;21.056;2023-04-08T04:51:49;102684.45;;;20.67;22.32
77897;BME280;67092;64.282;21.056;2023-04-08T04:54:14;102682.06;;;20.93;22.07
77897;BME280;67092;64.282;21.056;2023-04-08T04:56:40;102681.13;;;20.63;22.24
77897;BME280;67092;64.282;21.056;2023-04-08T04:59:06;102682.73;;;20.66;22.17
77897;BME280;67092;64.282;21.056;2023-04-08T05:01:31;102685.85;;;20.81;22.19
77897;BME280;67092;64.282;21.056;2023-04-08T05:03:57;102685.54;;;20.60;22.40
77897;BME280;67092;64.282;21.056;2023-04-08T05:06:23;102688.27;;;20.71;22.30
77897;BME280;67092;64.282;21.056;2023-04-08T05:08:48;102688.54;;;20.54;22.32
77897;BME280;67092;64.282;21.056;2023-04-08T05:11:14;102686.71;;;20.23;22.50
77897;BME280;67092;64.282;21.056;2023-04-08T05:13:39;102684.34;;;20.65;22.14
77897;BME280;67092;64.282;21.056;2023-04-08T05:16:06;102682.59;;;21.12;22.08
77897;BME280;67092;64.282;21.056;2023-04-08T05:18:31;102683.40;;;20.96;22.06
77897;BME280;67092;64.282;21.056;2023-04-08T05:20:56;102685.85;;;21.01;21.97
77897;BME280;67092;64.282;21.056;2023-04-08T05:23:22;102688.01;;;20.90;22.14
77897;BME280;67092;64.282;21.056;2023-04-08T05:25:48;102683.03;;;20.50;22.38
77897;BME280;67092;64.282;21.056;2023-04-08T05:28:13;102678.36;;;20.40;22.49
77897;BME280;67092;64.282;21.056;2023-04-08T05:30:39;102678.36;;;21.05;21.94
77897;BME280;67092;64.282;21.056;2023-04-08T05:33:04;102669.61;;;20.77;22.19
77897;BME280;67092;64.282;21.056;2023-04-08T05:35:30;102671.42;;;20.82;21.98
77897;BME280;67092;64.282;21.056;2023-04-08T05:37:56;102676.09;;;20.61;22.33
77897;BME280;67092;64.282;21.056;2023-04-08T05:40:21;102674.32;;;20.95;22.03
77897;BME280;67092;64.282;21.056;2023-04-08T05:42:47;102674.31;;;20.53;22.37
77897;BME280;67092;64.282;21.056;2023-04-08T05:45:12;102672.28;;;20.72;22.25
77897;BME280;67092;64.282;21.056;2023-04-08T05:47:38;102679.28;;;20.66;22.08
77897;BME280;67092;64.282;21.056;2023-04-08T05:50:04;102680.52;;;20.70;22.47
77897;BME280;67092;64.282;21.056;2023-04-08T05:52:29;102681.94;;;20.59;22.34
77897;BME280;67092;64.282;21.056;2023-04-08T05:54:55;102686.22;;;20.72;22.26
77897;BME280;67092;64.282;21.056;2023-04-08T05:57:20;102685.50;;;20.42;22.28
77897;BME280;67092;64.282;21.056;2023-04-08T05:59:46;102686.97;;;20.98;21.91
77897;BME280;67092;64.282;21.056;2023-04-08T06:02:12;102689.16;;;20.83;22.14
77897;BME280;67092;64.282;21.056;2023-04-08T06:04:37;102691.55;;;21.30;21.72
77897;BME280;67092;64.282;21.056;2023-04-08T06:07:03;102690.22;;;20.70;22.00
77897;BME280;67092;64.282;21.056;2023-04-08T06:09:29;102695.31;;;20.55;22.19
77897;BME280;67092;64.282;21.056;2023-04-08T06:11:54;102696.69;;;20.59;22.14
77897;BME280;67092;64.282;21.056;2023-04-08T06:14:20;102695.80;;;20.76;22.23
77897;BME280;67092;64.282;21.056;2023-04-08T06:16:45;102695.37;;;20.93;22.12
77897;BME280;67092;64.282;21.056;2023-04-08T06:19:11;102696.12;;;20.48;22.48
77897;BME280;67092;64.282;21.056;2023-04-08T06:21:37;102696.52;;;20.68;22.31
77897;BME280;67092;64.282;21.056;2023-04-08T06:24:03;102694.47;;;20.75;22.32
77897;BME280;67092;64.282;21.056;2023-04-08T06:26:28;102695.66;;;21.01;22.16
77897;BME280;67092;64.282;21.056;2023-04-08T06:28:54;102690.86;;;20.71;22.41
77897;BME280;67092;64.282;21.056;2023-04-08T06:31:19;102689.71;;;20.62;22.48
77897;BME280;67092;64.282;21.056;2023-04-08T06:33:45;102690.53;;;20.73;22.35
77897;BME280;67092;64.282;21.056;2023-04-08T06:36:10;102689.24;;;20.66;22.40
77897;BME280;67092;64.282;21.056;2023-04-08T06:38:36;102688.87;;;21.46;22.07
77897;BME280;67092;64.282;21.056;2023-04-08T06:41:02;102690.73;;;20.94;22.61
77897;BME280;67092;64.282;21.056;2023-04-08T06:43:27;102692.24;;;20.84;22.58
77897;BME280;67092;64.282;21.056;2023-04-08T06:45:53;102692.59;;;20.66;23.02
77897;BME280;67092;64.282;21.056;2023-04-08T06:48:18;102691.84;;;20.85;22.84
77897;BME280;67092;64.282;21.056;2023-04-08T06:50:45;102693.66;;;20.91;22.85
77897;BME280;67092;64.282;21.056;2023-04-08T06:53:10;102690.93;;;20.63;23.04
77897;BME280;67092;64.282;21.056;2023-04-08T06:55:35;102690.78;;;20.59;22.84
77897;BME280;67092;64.282;21.056;2023-04-08T06:58:01;102687.23;;;21.37;22.59
77897;BME280;67092;64.282;21.056;2023-04-08T07:00:26;102683.48;;;21.01;22.51
77897;BME280;67092;64.282;21.056;2023-04-08T07:02:51;102685.48;;;20.53;23.13
77897;BME280;67092;64.282;21.056;2023-04-08T07:05:17;102685.06;;;20.52;23.21
77897;BME280;67092;64.282;21.056;2023-04-08T07:07:42;102686.84;;;20.90;22.85
77897;BME280;67092;64.282;21.056;2023-04-08T07:10:09;102684.89;;;21.01;22.49
77897;BME280;67092;64.282;21.056;2023-04-08T07:12:34;102688.83;;;21.00;22.49
77897;BME280;67092;64.282;21.056;2023-04-08T07:14:59;102695.66;;;21.08;22.69
77897;BME280;67092;64.282;21.056;2023-04-08T07:17:25;102691.85;;;20.68;22.80
77897;BME280;67092;64.282;21.056;2023-04-08T07:19:50;102693.24;;;20.51;22.99
77897;BME280;67092;64.282;21.056;2023-04-08T07:22:16;102693.51;;;20.93;22.81
77897;BME280;67092;64.282;21.056;2023-04-08T07:24:42;102691.58;;;21.23;22.32
77897;BME280;67092;64.282;21.056;2023-04-08T07:27:08;102688.06;;;21.41;22.12
77897;BME280;67092;64.282;21.056;2023-04-08T07:29:33;102689.55;;;21.54;22.02
77897;BME280;67092;64.282;21.056;2023-04-08T07:31:59;102687.89;;;21.32;22.04
77897;BME280;67092;64.282;21.056;2023-04-08T07:34:24;102687.98;;;21.42;22.20
77897;BME280;67092;64.282;21.056;2023-04-08T07:36:50;102684.69;;;20.90;22.63
77897;BME280;67092;64.282;21.056;2023-04-08T07:39:16;102681.84;;;21.06;22.47
77897;BME280;67092;64.282;21.056;2023-04-08T07:41:41;102684.26;;;21.45;22.16
77897;BME280;67092;64.282;21.056;2023-04-08T07:44:07;102683.08;;;21.34;22.07
77897;BME280;67092;64.282;21.056;2023-04-08T07:46:36;102681.55;;;20.83;22.46
77897;BME280;67092;64.282;21.056;2023-04-08T07:48:58;102679.90;;;21.11;22.44
77897;BME280;67092;64.282;21.056;2023-04-08T07:51:24;102679.26;;;21.29;22.29
77897;BME280;67092;64.282;21.056;2023-04-08T07:53:49;102679.02;;;21.33;22.25
77897;BME280;67092;64.282;21.056;2023-04-08T07:56:15;102679.65;;;21.35;22.18
77897;BME280;67092;64.282;21.056;2023-04-08T07:58:41;102687.77;;;21.12;22.40
77897;BME280;67092;64.282;21.056;2023-04-08T08:01:15;102682.59;;;21.21;22.29
77897;BME280;67092;64.282;21.056;2023-04-08T08:03:32;102686.48;;;21.19;22.32
77897;BME280;67092;64.282;21.056;2023-04-08T08:05:57;102682.97;;;21.26;22.31
77897;BME280;67092;64.282;21.056;2023-04-08T08:08:23;102683.85;;;21.05;22.45
77897;BME280;67092;64.282;21.056;2023-04-08T08:10:48;102688.32;;;20.80;22.71
77897;BME280;67092;64.282;21.056;2023-04-08T08:13:14;102685.91;;;20.99;22.28
77897;BME280;67092;64.282;21.056;2023-04-08T08:15:40;102690.13;;;21.39;22.11
77897;BME280;67092;64.282;21.056;2023-04-08T08:18:05;102690.85;;;21.12;22.07
77897;BME280;67092;64.282;21.056;2023-04-08T08:20:31;102696.95;;;21.06;21.55
77897;BME280;67092;64.282;21.056;2023-04-08T08:22:56;102700.25;;;20.29;21.79
77897;BME280;67092;64.282;21.056;2023-04-08T08:25:21;102702.38;;;21.08;20.98
77897;BME280;67092;64.282;21.056;2023-04-08T08:27:47;102700.72;;;21.11;20.96
77897;BME280;67092;64.282;21.056;2023-04-08T08:30:13;102699.13;;;21.64;20.14
77897;BME280;67092;64.282;21.056;2023-04-08T08:32:38;102706.12;;;21.52;20.22
77897;BME280;67092;64.282;21.056;2023-04-08T08:35:05;102708.38;;;20.99;20.50
77897;BME280;67092;64.282;21.056;2023-04-08T08:37:29;102712.11;;;20.90;20.43
77897;BME280;67092;64.282;21.056;2023-04-08T08:39:55;102709.84;;;21.22;20.11
77897;BME280;67092;64.282;21.056;2023-04-08T08:42:21;102709.33;;;20.59;20.50
77897;BME280;67092;64.282;21.056;2023-04-08T08:44:46;102708.30;;;20.67;20.52
77897;BME280;67092;64.282;21.056;2023-04-08T08:47:12;102708.41;;;20.56;20.39
77897;BME280;67092;64.282;21.056;2023-04-08T08:49:37;102710.92;;;21.04;20.35
77897;BME280;67092;64.282;21.056;2023-04-08T08:52:03;102709.96;;;20.55;20.31
77897;BME280;67092;64.282;21.056;2023-04-08T08:54:29;102709.07;;;20.78;20.27
77897;BME280;67092;64.282;21.056;2023-04-08T08:56:54;102705.14;;;20.61;20.35
77897;BME280;67092;64.282;21.056;2023-04-08T08:59:20;102701.15;;;20.73;20.22
77897;BME280;67092;64.282;21.056;2023-04-08T09:01:45;102697.93;;;21.23;19.94
77897;BME280;67092;64.282;21.056;2023-04-08T09:04:12;102697.70;;;20.16;20.63
77897;BME280;67092;64.282;21.056;2023-04-08T09:06:36;102695.76;;;20.43;20.52
77897;BME280;67092;64.282;21.056;2023-04-08T09:09:02;102691.61;;;20.16;20.64
77897;BME280;67092;64.282;21.056;2023-04-08T09:11:28;102692.56;;;20.56;20.25
77897;BME280;67092;64.282;21.056;2023-04-08T09:13:54;102689.10;;;20.85;20.18
77897;BME280;67092;64.282;21.056;2023-04-08T09:16:19;102675.88;;;21.29;19.78
77897;BME280;67092;64.282;21.056;2023-04-08T09:18:45;102677.17;;;20.96;20.43
77897;BME280;67092;64.282;21.056;2023-04-08T09:21:11;102680.91;;;21.05;20.54
77897;BME280;67092;64.282;21.056;2023-04-08T09:23:40;102672.12;;;21.22;20.69
77897;BME280;67092;64.282;21.056;2023-04-08T09:26:07;102670.35;;;21.64;20.55
77897;BME280;67092;64.282;21.056;2023-04-08T09:28:26;102670.75;;;21.10;21.08
77897;BME280;67092;64.282;21.056;2023-04-08T09:30:51;102671.18;;;21.18;21.24
77897;BME280;67092;64.282;21.056;2023-04-08T09:33:17;102669.95;;;21.39;21.42
77897;BME280;67092;64.282;21.056;2023-04-08T09:35:43;102665.82;;;21.41;21.56
77897;BME280;67092;64.282;21.056;2023-04-08T09:38:08;102664.58;;;21.18;21.69
77897;BME280;67092;64.282;21.056;2023-04-08T09:40:34;102660.89;;;21.26;21.44
77897;BME280;67092;64.282;21.056;2023-04-08T09:43:00;102661.58;;;21.36;21.62
77897;BME280;67092;64.282;21.056;2023-04-08T09:45:24;102658.89;;;21.09;21.89
77897;BME280;67092;64.282;21.056;2023-04-08T09:47:59;102656.08;;;21.43;21.43
77897;BME280;67092;64.282;21.056;2023-04-08T09:50:16;102660.77;;;21.36;21.72
77897;BME280;67092;64.282;21.056;2023-04-08T09:52:43;102662.30;;;21.35;21.75
77897;BME280;67092;64.282;21.056;2023-04-08T09:55:08;102660.22;;;21.07;21.77
77897;BME280;67092;64.282;21.056;2023-04-08T09:57:38;102661.45;;;21.10;20.61
77897;BME280;67092;64.282;21.056;2023-04-08T10:00:02;102664.79;;;20.94;20.91
77897;BME280;67092;64.282;21.056;2023-04-08T10:02:27;102665.04;;;20.69;21.10
77897;BME280;67092;64.282;21.056;2023-04-08T10:04:49;102658.20;;;21.15;21.29
77897;BME280;67092;64.282;21.056;2023-04-08T10:07:13;102663.15;;;20.68;21.49
77897;BME280;67092;64.282;21.056;2023-04-08T10:09:38;102660.67;;;20.40;21.34
77897;BME280;67092;64.282;21.056;2023-04-08T10:12:04;102662.97;;;20.33;21.50
77897;BME280;67092;64.282;21.056;2023-04-08T10:14:29;102669.98;;;20.40;21.16
77897;BME280;67092;64.282;21.056;2023-04-08T10:21:45;102668.04;;;20.88;20.75
77897;BME280;67092;64.282;21.056;2023-04-08T10:24:11;102662.56;;;20.59;20.92
77897;BME280;67092;64.282;21.056;2023-04-08T10:26:38;102665.63;;;20.77;21.09
77897;BME280;67092;64.282;21.056;2023-04-08T10:31:27;102660.62;;;20.81;21.34
77897;BME280;67092;64.282;21.056;2023-04-08T10:33:52;102665.06;;;21.27;21.01
77897;BME280;67092;64.282;21.056;2023-04-08T10:36:17;102664.64;;;20.86;21.25
77897;BME280;67092;64.282;21.056;2023-04-08T10:38:43;102663.67;;;21.04;21.18
77897;BME280;67092;64.282;21.056;2023-04-08T10:41:09;102663.45;;;20.67;21.19
77897;BME280;67092;64.282;21.056;2023-04-08T10:43:35;102661.98;;;21.13;20.81
77897;BME280;67092;64.282;21.056;2023-04-08T10:45:59;102666.28;;;20.54;20.97
77897;BME280;67092;64.282;21.056;2023-04-08T10:48:25;102663.77;;;20.41;20.93
77897;BME280;67092;64.282;21.056;2023-04-08T10:50:52;102665.82;;;20.60;20.72
77897;BME280;67092;64.282;21.056;2023-04-08T10:53:15;102661.68;;;20.65;20.83
77897;BME280;67092;64.282;21.056;2023-04-08T10:55:41;102661.55;;;20.81;20.79
77897;BME280;67092;64.282;21.056;2023-04-08T10:58:07;102667.18;;;20.40;20.76
77897;BME280;67092;64.282;21.056;2023-04-08T11:00:33;102661.24;;;20.75;20.40
77897;BME280;67092;64.282;21.056;2023-04-08T11:02:59;102660.22;;;20.82;20.29
77897;BME280;67092;64.282;21.056;2023-04-08T11:05:23;102661.30;;;21.33;20.25
77897;BME280;67092;64.282;21.056;2023-04-08T11:07:48;102662.92;;;20.79;20.62
77897;BME280;67092;64.282;21.056;2023-04-08T11:10:14;102659.48;;;21.15;20.35
77897;BME280;67092;64.282;21.056;2023-04-08T11:12:39;102663.61;;;21.47;19.92
77897;BME280;67092;64.282;21.056;2023-04-08T11:15:05;102667.54;;;20.61;20.45
77897;BME280;67092;64.282;21.056;2023-04-08T11:17:30;102666.89;;;20.51;20.73
77897;BME280;67092;64.282;21.056;2023-04-08T11:19:56;102668.33;;;20.14;21.02
77897;BME280;67092;64.282;21.056;2023-04-08T11:22:22;102666.88;;;20.73;20.77
77897;BME280;67092;64.282;21.056;2023-04-08T11:24:47;102668.68;;;20.75;20.52
77897;BME280;67092;64.282;21.056;2023-04-08T11:27:12;102671.80;;;20.33;20.61
77897;BME280;67092;64.282;21.056;2023-04-08T11:29:38;102667.16;;;20.26;20.66
77897;BME280;67092;64.282;21.056;2023-04-08T11:32:03;102668.35;;;20.66;20.40
77897;BME280;67092;64.282;21.056;2023-04-08T11:34:29;102663.12;;;20.44;20.85
77897;BME280;67092;64.282;21.056;2023-04-08T11:36:56;102663.24;;;20.56;20.94
77897;BME280;67092;64.282;21.056;2023-04-08T11:39:22;102662.84;;;20.72;20.67
77897;BME280;67092;64.282;21.056;2023-04-08T11:41:46;102659.70;;;20.15;21.16
77897;BME280;67092;64.282;21.056;2023-04-08T11:44:10;102661.35;;;20.30;21.02
77897;BME280;67092;64.282;21.056;2023-04-08T11:46:35;102658.05;;;20.76;20.91
77897;BME280;67092;64.282;21.056;2023-04-08T11:49:02;102658.04;;;20.23;21.14
77897;BME280;67092;64.282;21.056;2023-04-08T11:51:26;102655.02;;;20.72;21.18
77897;BME280;67092;64.282;21.056;2023-04-08T11:53:52;102650.48;;;21.01;21.36
77897;BME280;67092;64.282;21.056;2023-04-08T11:56:18;102656.87;;;20.61;21.49
77897;BME280;67092;64.282;21.056;2023-04-08T11:58:42;102657.07;;;20.94;21.57
77897;BME280;67092;64.282;21.056;2023-04-08T12:01:08;102653.91;;;20.81;21.61
77897;BME280;67092;64.282;21.056;2023-04-08T12:03:33;102653.70;;;20.78;21.65
77897;BME280;67092;64.282;21.056;2023-04-08T12:05:58;102659.02;;;20.60;21.48
77897;BME280;67092;64.282;21.056;2023-04-08T12:08:23;102661.00;;;20.46;21.32
77897;BME280;67092;64.282;21.056;2023-04-08T12:10:49;102657.46;;;20.22;21.41
77897;BME280;67092;64.282;21.056;2023-04-08T12:13:14;102660.74;;;20.53;21.30
77897;BME280;67092;64.282;21.056;2023-04-08T12:15:40;102660.26;;;20.29;21.20
77897;BME280;67092;64.282;21.056;2023-04-08T12:18:05;102661.61;;;20.59;21.09
77897;BME280;67092;64.282;21.056;2023-04-08T12:20:31;102657.92;;;20.60;21.05
77897;BME280;67092;64.282;21.056;2023-04-08T12:22:56;102660.06;;;20.57;21.01
77897;BME280;67092;64.282;21.056;2023-04-08T12:25:21;102659.74;;;20.54;20.97
77897;BME280;67092;64.282;21.056;2023-04-08T12:27:47;102657.42;;;20.69;20.82
77897;BME280;67092;64.282;21.056;2023-04-08T12:30:13;102656.97;;;20.89;20.75
77897;BME280;67092;64.282;21.056;2023-04-08T12:32:38;102652.84;;;20.21;20.94
77897;BME280;67092;64.282;21.056;2023-04-08T12:35:03;102652.56;;;20.76;20.63
77897;BME280;67092;64.282;21.056;2023-04-08T12:37:28;102653.17;;;20.86;20.51